SMRA50 UAOL 242100
AAXX 24211
51076 32/80 90202 10167 21001 40096 57006 333 05401=
51087 32/80 92002 10145 21020 40101 57004 333 05451=
51156 32/80 93404 10093 21026 40111 57005 333 05453=
51243 32/80 93202 10205 21032 40081 52004 333 05600=
51288 32/80 91103 10112 21071 38327 57009 333 05401=
51334 32/80 91603 10192 20017 40083 52002 333 05702=
51431 32/63 92504 10182 20064 40102 52045 333 05306=
51463 31/56 92203 10175 21007 40073 57005 705// 333 05501=
51467 32/74 93201 10074 21008 38230 52004 333 05402=
51573 32/68 93601 10254 21031 40066 57001 333 05701=
51644 32/63 90202 10116 20053 40106 57010 333 05502=
51656 32/77 93602 10130 20010 40097 57009 333 05601=
51709 32/67 92203 10162 20011 40095 57008 333 05503=
51711 32/68 92502 10118 20025 38027 57013 333 05403=
51716 32/63 90000 10126 20030 40092 57013 333 05601=
51765 32/63 91801 10130 21029 40107 57008 333 05600=
51777 32/66 92001 10098 20033 40113 57010 333 05651=
51811 32/59 90000 10123 20043 40087 57013 333 05500=
51818 32/59 90000 10113 20010 40090 57010 333 05501=
51886 32/75 90702 10017 21125 37169 57008 333 05200=
52203 32/63 90401 10156 21043 40085 57006 333 05602=
52418 32/74 92002 10172 21040 40115 57010 333 05508=
52602 32/72 93202 11005 21096 37315 57007 333 05200=
52818 32/80 92705 10042 21092 37289 57001 333 05200=
52908 32/72 93201 11088 21119 35823 57006 333 00051=
55299 32/80 93601 11028 21115 35879 57003 333 00153 70008=
55591 42/80 92902 10038 20005 36529 57006 333 00051 70031=
56004 32/77 93403 11079 21128 35881 57003 333 00051=
56018 32/80 90901 11013 21032 36216 57005 333 00052 70017=
58974 32475 80206 10178 20130 30029 40153 52009 885//=
59158 32660 83503 10210 20173 30010 40110 53007 885//=
59358 31658 73603 10247 20211 30076 40107 53004 71022 875//=
59559 32562 80304 10248 20202 30074 40102 54000 8415/=
59562 32665 83501 10224 20196 30109 40120 53010 885//=
59567 32460 80206 10216 20198 39736 40110 54000 885//=



SMUS50 KWBC 242100
AAXX 24214